<?xml version="1.0" encoding="utf-8"?>
<gpx xmlns:xsi="http://www.w3.org/2001/XMLSchema-instance" xmlns:xsd="http://www.w3.org/2001/XMLSchema" version="1.1" creator="Shapelink.com" xmlns="http://www.topografix.com/GPX/1/1" xmlns:gpxtpx="http://www.garmin.com/xmlschemas/TrackPointExtension/v1">
  <metadata>
    <name>Ejecutar 4.33 km, 2020-01-09</name>
    <desc></desc>
    <author><name>Per Rooth</name></author> 
    <time>2020-01-09T18:19:18Z</time>
  </metadata>
  <trk>
    <name>Ejecutar 4.33 km, 2020-01-09</name>
    <trkseg>
      <trkpt lat="56.91844278487" lon="14.792302856366">
        <ele>186.4</ele>
        <time>2020-01-09T18:19:18Z</time>
      </trkpt>
      <trkpt lat="56.918318397474" lon="14.792024409648">
        <ele>185.6</ele>
        <time>2020-01-09T18:19:27Z</time>
      </trkpt>
      <trkpt lat="56.918253773025" lon="14.791713441158">
        <ele>185.6</ele>
        <time>2020-01-09T18:19:33Z</time>
      </trkpt>
      <trkpt lat="56.918231309533" lon="14.791360227892">
        <ele>186.2</ele>
        <time>2020-01-09T18:19:40Z</time>
      </trkpt>
      <trkpt lat="56.918225526022" lon="14.791002572219">
        <ele>186.8</ele>
        <time>2020-01-09T18:19:47Z</time>
      </trkpt>
      <trkpt lat="56.9181971952" lon="14.790636618465">
        <ele>186.8</ele>
        <time>2020-01-09T18:19:54Z</time>
      </trkpt>
      <trkpt lat="56.918182694513" lon="14.79053729295">
        <ele>186.8</ele>
        <time>2020-01-09T18:19:56Z</time>
      </trkpt>
      <trkpt lat="56.918162075039" lon="14.790386670207">
        <ele>186.2</ele>
        <time>2020-01-09T18:19:59Z</time>
      </trkpt>
      <trkpt lat="56.918145646515" lon="14.790284578665">
        <ele>186.4</ele>
        <time>2020-01-09T18:20:02Z</time>
      </trkpt>
      <trkpt lat="56.918141790841" lon="14.790224396623">
        <ele>186.6</ele>
        <time>2020-01-09T18:20:05Z</time>
      </trkpt>
      <trkpt lat="56.918153022587" lon="14.790199334742">
        <ele>186</ele>
        <time>2020-01-09T18:20:08Z</time>
      </trkpt>
      <trkpt lat="56.918153357863" lon="14.790156503233">
        <ele>185.8</ele>
        <time>2020-01-09T18:20:11Z</time>
      </trkpt>
      <trkpt lat="56.918163583781" lon="14.790106379471">
        <ele>185.6</ele>
        <time>2020-01-09T18:20:15Z</time>
      </trkpt>
      <trkpt lat="56.918163164686" lon="14.789997330952">
        <ele>185.4</ele>
        <time>2020-01-09T18:20:19Z</time>
      </trkpt>
      <trkpt lat="56.918115471675" lon="14.789684769901">
        <ele>185.2</ele>
        <time>2020-01-09T18:20:28Z</time>
      </trkpt>
      <trkpt lat="56.918109017612" lon="14.789648392455">
        <ele>185.4</ele>
        <time>2020-01-09T18:20:29Z</time>
      </trkpt>
      <trkpt lat="56.918097618228" lon="14.789577984495">
        <ele>185.2</ele>
        <time>2020-01-09T18:20:31Z</time>
      </trkpt>
      <trkpt lat="56.918098540237" lon="14.789447897407">
        <ele>184.8</ele>
        <time>2020-01-09T18:20:36Z</time>
      </trkpt>
      <trkpt lat="56.918098372599" lon="14.78940489826">
        <ele>184.8</ele>
        <time>2020-01-09T18:20:37Z</time>
      </trkpt>
      <trkpt lat="56.91810415611" lon="14.789349493901">
        <ele>185</ele>
        <time>2020-01-09T18:20:39Z</time>
      </trkpt>
      <trkpt lat="56.918256203776" lon="14.78914589755">
        <ele>185.2</ele>
        <time>2020-01-09T18:20:48Z</time>
      </trkpt>
      <trkpt lat="56.918270788282" lon="14.789103652774">
        <ele>185</ele>
        <time>2020-01-09T18:20:50Z</time>
      </trkpt>
      <trkpt lat="56.918304567339" lon="14.788907767771">
        <ele>186</ele>
        <time>2020-01-09T18:20:57Z</time>
      </trkpt>
      <trkpt lat="56.918299035285" lon="14.788725377627">
        <ele>186.2</ele>
        <time>2020-01-09T18:21:02Z</time>
      </trkpt>
      <trkpt lat="56.91831370361" lon="14.788646755405">
        <ele>186.8</ele>
        <time>2020-01-09T18:21:04Z</time>
      </trkpt>
      <trkpt lat="56.918347315029" lon="14.788574084332">
        <ele>187.2</ele>
        <time>2020-01-09T18:21:06Z</time>
      </trkpt>
      <trkpt lat="56.918393499298" lon="14.788476351378">
        <ele>186.8</ele>
        <time>2020-01-09T18:21:09Z</time>
      </trkpt>
      <trkpt lat="56.918403557578" lon="14.788440393027">
        <ele>186.6</ele>
        <time>2020-01-09T18:21:10Z</time>
      </trkpt>
      <trkpt lat="56.918441359947" lon="14.788183152516">
        <ele>187</ele>
        <time>2020-01-09T18:21:17Z</time>
      </trkpt>
      <trkpt lat="56.918436666083" lon="14.788001349105">
        <ele>187.4</ele>
        <time>2020-01-09T18:21:24Z</time>
      </trkpt>
      <trkpt lat="56.918420069921" lon="14.78789531807">
        <ele>187.6</ele>
        <time>2020-01-09T18:21:27Z</time>
      </trkpt>
      <trkpt lat="56.918409760184" lon="14.787760453299">
        <ele>187.4</ele>
        <time>2020-01-09T18:21:30Z</time>
      </trkpt>
      <trkpt lat="56.918390649452" lon="14.787631455858">
        <ele>187.6</ele>
        <time>2020-01-09T18:21:33Z</time>
      </trkpt>
      <trkpt lat="56.918386039407" lon="14.787556940767">
        <ele>187.4</ele>
        <time>2020-01-09T18:21:35Z</time>
      </trkpt>
      <trkpt lat="56.918350500151" lon="14.787222502957">
        <ele>186.6</ele>
        <time>2020-01-09T18:21:43Z</time>
      </trkpt>
      <trkpt lat="56.918341782975" lon="14.787098953751">
        <ele>186.6</ele>
        <time>2020-01-09T18:21:46Z</time>
      </trkpt>
      <trkpt lat="56.918358798232" lon="14.786752446005">
        <ele>187</ele>
        <time>2020-01-09T18:21:54Z</time>
      </trkpt>
      <trkpt lat="56.918363408277" lon="14.786620095804">
        <ele>186.8</ele>
        <time>2020-01-09T18:21:57Z</time>
      </trkpt>
      <trkpt lat="56.918408251442" lon="14.786449775596">
        <ele>186</ele>
        <time>2020-01-09T18:22:03Z</time>
      </trkpt>
      <trkpt lat="56.918407748528" lon="14.78642513281">
        <ele>185.8</ele>
        <time>2020-01-09T18:22:04Z</time>
      </trkpt>
      <trkpt lat="56.918419986102" lon="14.786173843448">
        <ele>185.6</ele>
        <time>2020-01-09T18:22:14Z</time>
      </trkpt>
      <trkpt lat="56.918425099061" lon="14.786018359203">
        <ele>185.2</ele>
        <time>2020-01-09T18:22:31Z</time>
      </trkpt>
      <trkpt lat="56.918472289158" lon="14.785753407344">
        <ele>185</ele>
        <time>2020-01-09T18:22:38Z</time>
      </trkpt>
      <trkpt lat="56.918624504462" lon="14.78557017901">
        <ele>185.2</ele>
        <time>2020-01-09T18:22:48Z</time>
      </trkpt>
      <trkpt lat="56.918710670394" lon="14.785409330349">
        <ele>184.8</ele>
        <time>2020-01-09T18:22:53Z</time>
      </trkpt>
      <trkpt lat="56.91873028404" lon="14.785311262119">
        <ele>184.4</ele>
        <time>2020-01-09T18:22:55Z</time>
      </trkpt>
      <trkpt lat="56.918734055895" lon="14.785219061219">
        <ele>184.4</ele>
        <time>2020-01-09T18:22:57Z</time>
      </trkpt>
      <trkpt lat="56.918753334265" lon="14.785143959395">
        <ele>184.4</ele>
        <time>2020-01-09T18:22:59Z</time>
      </trkpt>
      <trkpt lat="56.918760542699" lon="14.785011525375">
        <ele>184.2</ele>
        <time>2020-01-09T18:23:03Z</time>
      </trkpt>
      <trkpt lat="56.918792813014" lon="14.784905661978">
        <ele>184.4</ele>
        <time>2020-01-09T18:23:07Z</time>
      </trkpt>
      <trkpt lat="56.918920720808" lon="14.784664766172">
        <ele>184.8</ele>
        <time>2020-01-09T18:23:16Z</time>
      </trkpt>
      <trkpt lat="56.918949806001" lon="14.784595280221">
        <ele>184.8</ele>
        <time>2020-01-09T18:23:19Z</time>
      </trkpt>
      <trkpt lat="56.918979394108" lon="14.784496373801">
        <ele>184.4</ele>
        <time>2020-01-09T18:23:22Z</time>
      </trkpt>
      <trkpt lat="56.918965563973" lon="14.78440928586">
        <ele>184.4</ele>
        <time>2020-01-09T18:23:24Z</time>
      </trkpt>
      <trkpt lat="56.918828519908" lon="14.784145926562">
        <ele>185.6</ele>
        <time>2020-01-09T18:23:31Z</time>
      </trkpt>
      <trkpt lat="56.918735061723" lon="14.783857421564">
        <ele>184.8</ele>
        <time>2020-01-09T18:23:37Z</time>
      </trkpt>
      <trkpt lat="56.918712095317" lon="14.783739488231">
        <ele>184.6</ele>
        <time>2020-01-09T18:23:40Z</time>
      </trkpt>
      <trkpt lat="56.91863808314" lon="14.783439248573">
        <ele>184.2</ele>
        <time>2020-01-09T18:23:46Z</time>
      </trkpt>
      <trkpt lat="56.918601957151" lon="14.783159209294">
        <ele>184</ele>
        <time>2020-01-09T18:23:51Z</time>
      </trkpt>
      <trkpt lat="56.918565747343" lon="14.78278738821">
        <ele>183.2</ele>
        <time>2020-01-09T18:23:58Z</time>
      </trkpt>
      <trkpt lat="56.918570022112" lon="14.782705161771">
        <ele>183.4</ele>
        <time>2020-01-09T18:24:00Z</time>
      </trkpt>
      <trkpt lat="56.918594581079" lon="14.782650847059">
        <ele>183.2</ele>
        <time>2020-01-09T18:24:02Z</time>
      </trkpt>
      <trkpt lat="56.918723159425" lon="14.782563507661">
        <ele>183</ele>
        <time>2020-01-09T18:24:07Z</time>
      </trkpt>
      <trkpt lat="56.918867495743" lon="14.782459320644">
        <ele>183</ele>
        <time>2020-01-09T18:24:14Z</time>
      </trkpt>
      <trkpt lat="56.919045778756" lon="14.782329652651">
        <ele>183.4</ele>
        <time>2020-01-09T18:24:21Z</time>
      </trkpt>
      <trkpt lat="56.919214925498" lon="14.782196296622">
        <ele>183</ele>
        <time>2020-01-09T18:24:27Z</time>
      </trkpt>
      <trkpt lat="56.91936311749" lon="14.782037459617">
        <ele>183.4</ele>
        <time>2020-01-09T18:24:34Z</time>
      </trkpt>
      <trkpt lat="56.919412486881" lon="14.781683659618">
        <ele>182.8</ele>
        <time>2020-01-09T18:24:43Z</time>
      </trkpt>
      <trkpt lat="56.919411229596" lon="14.781502945854">
        <ele>184</ele>
        <time>2020-01-09T18:24:47Z</time>
      </trkpt>
      <trkpt lat="56.919439308961" lon="14.781152247158">
        <ele>183.2</ele>
        <time>2020-01-09T18:24:55Z</time>
      </trkpt>
      <trkpt lat="56.919488510714" lon="14.780804649765">
        <ele>183.4</ele>
        <time>2020-01-09T18:25:03Z</time>
      </trkpt>
      <trkpt lat="56.919509297826" lon="14.780710772485">
        <ele>183.2</ele>
        <time>2020-01-09T18:25:05Z</time>
      </trkpt>
      <trkpt lat="56.919492701664" lon="14.780517821147">
        <ele>183.2</ele>
        <time>2020-01-09T18:25:11Z</time>
      </trkpt>
      <trkpt lat="56.919541484322" lon="14.780400809823">
        <ele>183.4</ele>
        <time>2020-01-09T18:25:15Z</time>
      </trkpt>
      <trkpt lat="56.919600744355" lon="14.780196040006">
        <ele>183.6</ele>
        <time>2020-01-09T18:25:19Z</time>
      </trkpt>
      <trkpt lat="56.919671487591" lon="14.780045752539">
        <ele>184</ele>
        <time>2020-01-09T18:25:24Z</time>
      </trkpt>
      <trkpt lat="56.919783134499" lon="14.779749452374">
        <ele>183.8</ele>
        <time>2020-01-09T18:25:31Z</time>
      </trkpt>
      <trkpt lat="56.919798724833" lon="14.779737130981">
        <ele>183.8</ele>
        <time>2020-01-09T18:25:32Z</time>
      </trkpt>
      <trkpt lat="56.919839377048" lon="14.779670746333">
        <ele>183.6</ele>
        <time>2020-01-09T18:25:36Z</time>
      </trkpt>
      <trkpt lat="56.919895451959" lon="14.779343097862">
        <ele>183.8</ele>
        <time>2020-01-09T18:25:45Z</time>
      </trkpt>
      <trkpt lat="56.919915317062" lon="14.779318790352">
        <ele>184</ele>
        <time>2020-01-09T18:25:46Z</time>
      </trkpt>
      <trkpt lat="56.919954544354" lon="14.779263218355">
        <ele>184.2</ele>
        <time>2020-01-09T18:25:49Z</time>
      </trkpt>
      <trkpt lat="56.919972649258" lon="14.779197336621">
        <ele>184</ele>
        <time>2020-01-09T18:25:51Z</time>
      </trkpt>
      <trkpt lat="56.920013888206" lon="14.779157271139">
        <ele>184</ele>
        <time>2020-01-09T18:25:55Z</time>
      </trkpt>
      <trkpt lat="56.920078428836" lon="14.779142770452">
        <ele>183.2</ele>
        <time>2020-01-09T18:26:02Z</time>
      </trkpt>
      <trkpt lat="56.920139449068" lon="14.779153499284">
        <ele>183.2</ele>
        <time>2020-01-09T18:26:07Z</time>
      </trkpt>
      <trkpt lat="56.920189991925" lon="14.779120893693">
        <ele>183</ele>
        <time>2020-01-09T18:26:12Z</time>
      </trkpt>
      <trkpt lat="56.920201139852" lon="14.779142016081">
        <ele>183</ele>
        <time>2020-01-09T18:26:14Z</time>
      </trkpt>
      <trkpt lat="56.920210862856" lon="14.779165150125">
        <ele>183</ele>
        <time>2020-01-09T18:26:16Z</time>
      </trkpt>
      <trkpt lat="56.920255119288" lon="14.779198929182">
        <ele>183.2</ele>
        <time>2020-01-09T18:26:19Z</time>
      </trkpt>
      <trkpt lat="56.920376573019" lon="14.779261793432">
        <ele>184.2</ele>
        <time>2020-01-09T18:26:26Z</time>
      </trkpt>
      <trkpt lat="56.920449160273" lon="14.779301691276">
        <ele>183</ele>
        <time>2020-01-09T18:26:31Z</time>
      </trkpt>
      <trkpt lat="56.920479167475" lon="14.779327256071">
        <ele>182.8</ele>
        <time>2020-01-09T18:26:33Z</time>
      </trkpt>
      <trkpt lat="56.920630879865" lon="14.779507969835">
        <ele>182.6</ele>
        <time>2020-01-09T18:26:45Z</time>
      </trkpt>
      <trkpt lat="56.920766582826" lon="14.779625400254">
        <ele>182.2</ele>
        <time>2020-01-09T18:26:53Z</time>
      </trkpt>
      <trkpt lat="56.920850737102" lon="14.779690527617">
        <ele>182</ele>
        <time>2020-01-09T18:26:57Z</time>
      </trkpt>
      <trkpt lat="56.921007897727" lon="14.779908373198">
        <ele>182.6</ele>
        <time>2020-01-09T18:27:06Z</time>
      </trkpt>
      <trkpt lat="56.921165812723" lon="14.780025635979">
        <ele>182.2</ele>
        <time>2020-01-09T18:27:17Z</time>
      </trkpt>
      <trkpt lat="56.921214427743" lon="14.780088332591">
        <ele>182.2</ele>
        <time>2020-01-09T18:27:21Z</time>
      </trkpt>
      <trkpt lat="56.921238567615" lon="14.780089925152">
        <ele>182</ele>
        <time>2020-01-09T18:27:23Z</time>
      </trkpt>
      <trkpt lat="56.921277962545" lon="14.780091350075">
        <ele>182</ele>
        <time>2020-01-09T18:27:26Z</time>
      </trkpt>
      <trkpt lat="56.921304030254" lon="14.78006662347">
        <ele>182</ele>
        <time>2020-01-09T18:27:28Z</time>
      </trkpt>
      <trkpt lat="56.921333283085" lon="14.780022450857">
        <ele>182</ele>
        <time>2020-01-09T18:27:30Z</time>
      </trkpt>
      <trkpt lat="56.921342167899" lon="14.779910887768">
        <ele>182.4</ele>
        <time>2020-01-09T18:27:35Z</time>
      </trkpt>
      <trkpt lat="56.921379132078" lon="14.779971824181">
        <ele>181.8</ele>
        <time>2020-01-09T18:27:44Z</time>
      </trkpt>
      <trkpt lat="56.921391788747" lon="14.780042483598">
        <ele>181.8</ele>
        <time>2020-01-09T18:27:46Z</time>
      </trkpt>
      <trkpt lat="56.92144015231" lon="14.780370383526">
        <ele>182.4</ele>
        <time>2020-01-09T18:27:54Z</time>
      </trkpt>
      <trkpt lat="56.921445432907" lon="14.780382453462">
        <ele>182.4</ele>
        <time>2020-01-09T18:27:55Z</time>
      </trkpt>
      <trkpt lat="56.921453898626" lon="14.780551432566">
        <ele>181.2</ele>
        <time>2020-01-09T18:28:02Z</time>
      </trkpt>
      <trkpt lat="56.9215834828" lon="14.780574231334">
        <ele>181.2</ele>
        <time>2020-01-09T18:28:07Z</time>
      </trkpt>
      <trkpt lat="56.921781547097" lon="14.780537267155">
        <ele>181.4</ele>
        <time>2020-01-09T18:28:14Z</time>
      </trkpt>
      <trkpt lat="56.921837538189" lon="14.780535758413">
        <ele>181.8</ele>
        <time>2020-01-09T18:28:16Z</time>
      </trkpt>
      <trkpt lat="56.922035853943" lon="14.78050751141">
        <ele>182</ele>
        <time>2020-01-09T18:28:22Z</time>
      </trkpt>
      <trkpt lat="56.922226709806" lon="14.780501811718">
        <ele>181.2</ele>
        <time>2020-01-09T18:28:29Z</time>
      </trkpt>
      <trkpt lat="56.922248335108" lon="14.780501811718">
        <ele>181.2</ele>
        <time>2020-01-09T18:28:30Z</time>
      </trkpt>
      <trkpt lat="56.922272642618" lon="14.780523604658">
        <ele>181</ele>
        <time>2020-01-09T18:28:32Z</time>
      </trkpt>
      <trkpt lat="56.922284712554" lon="14.780544810865">
        <ele>181</ele>
        <time>2020-01-09T18:28:33Z</time>
      </trkpt>
      <trkpt lat="56.922354785238" lon="14.780885870376">
        <ele>181</ele>
        <time>2020-01-09T18:28:40Z</time>
      </trkpt>
      <trkpt lat="56.922396024186" lon="14.781247549361">
        <ele>181</ele>
        <time>2020-01-09T18:28:47Z</time>
      </trkpt>
      <trkpt lat="56.922372890142" lon="14.781594224745">
        <ele>181.4</ele>
        <time>2020-01-09T18:28:56Z</time>
      </trkpt>
      <trkpt lat="56.922391917055" lon="14.781861942631">
        <ele>182</ele>
        <time>2020-01-09T18:29:02Z</time>
      </trkpt>
      <trkpt lat="56.922431647261" lon="14.782152375466">
        <ele>183</ele>
        <time>2020-01-09T18:29:08Z</time>
      </trkpt>
      <trkpt lat="56.922437263134" lon="14.782319175276">
        <ele>184.2</ele>
        <time>2020-01-09T18:29:12Z</time>
      </trkpt>
      <trkpt lat="56.922437430772" lon="14.78245211221">
        <ele>185.2</ele>
        <time>2020-01-09T18:29:15Z</time>
      </trkpt>
      <trkpt lat="56.922468192345" lon="14.78262561754">
        <ele>185.6</ele>
        <time>2020-01-09T18:29:19Z</time>
      </trkpt>
      <trkpt lat="56.92263205849" lon="14.782756626637">
        <ele>185.2</ele>
        <time>2020-01-09T18:29:28Z</time>
      </trkpt>
      <trkpt lat="56.922822662896" lon="14.78278068269">
        <ele>185.8</ele>
        <time>2020-01-09T18:29:36Z</time>
      </trkpt>
      <trkpt lat="56.922876726151" lon="14.782783113441">
        <ele>186.4</ele>
        <time>2020-01-09T18:29:39Z</time>
      </trkpt>
      <trkpt lat="56.923063474883" lon="14.782828878615">
        <ele>185.6</ele>
        <time>2020-01-09T18:29:51Z</time>
      </trkpt>
      <trkpt lat="56.923072024421" lon="14.782826699321">
        <ele>185.6</ele>
        <time>2020-01-09T18:29:52Z</time>
      </trkpt>
      <trkpt lat="56.923132877015" lon="14.782841200008">
        <ele>185.4</ele>
        <time>2020-01-09T18:29:56Z</time>
      </trkpt>
      <trkpt lat="56.923149556996" lon="14.782845977691">
        <ele>185.4</ele>
        <time>2020-01-09T18:29:57Z</time>
      </trkpt>
      <trkpt lat="56.923179899474" lon="14.782857628532">
        <ele>185.2</ele>
        <time>2020-01-09T18:29:59Z</time>
      </trkpt>
      <trkpt lat="56.923232034892" lon="14.782878248006">
        <ele>185.2</ele>
        <time>2020-01-09T18:30:02Z</time>
      </trkpt>
      <trkpt lat="56.923305544155" lon="14.782968185793">
        <ele>185</ele>
        <time>2020-01-09T18:30:11Z</time>
      </trkpt>
      <trkpt lat="56.923309651286" lon="14.783006071981">
        <ele>185</ele>
        <time>2020-01-09T18:30:13Z</time>
      </trkpt>
      <trkpt lat="56.923379472513" lon="14.783330702968">
        <ele>184.2</ele>
        <time>2020-01-09T18:30:20Z</time>
      </trkpt>
      <trkpt lat="56.923499082226" lon="14.783608479134">
        <ele>183.6</ele>
        <time>2020-01-09T18:30:29Z</time>
      </trkpt>
      <trkpt lat="56.923507799402" lon="14.783666900977">
        <ele>183.4</ele>
        <time>2020-01-09T18:30:32Z</time>
      </trkpt>
      <trkpt lat="56.923518779691" lon="14.783700344758">
        <ele>183.4</ele>
        <time>2020-01-09T18:30:34Z</time>
      </trkpt>
      <trkpt lat="56.923547781065" lon="14.783791204554">
        <ele>183.4</ele>
        <time>2020-01-09T18:30:38Z</time>
      </trkpt>
      <trkpt lat="56.923581057208" lon="14.783897319408">
        <ele>183.2</ele>
        <time>2020-01-09T18:30:41Z</time>
      </trkpt>
      <trkpt lat="56.923589355289" lon="14.783913412656">
        <ele>183.2</ele>
        <time>2020-01-09T18:30:42Z</time>
      </trkpt>
      <trkpt lat="56.923597318094" lon="14.783941408202">
        <ele>183.2</ele>
        <time>2020-01-09T18:30:44Z</time>
      </trkpt>
      <trkpt lat="56.923605699994" lon="14.784081888846">
        <ele>183.2</ele>
        <time>2020-01-09T18:30:52Z</time>
      </trkpt>
      <trkpt lat="56.923610645315" lon="14.784138718128">
        <ele>183.4</ele>
        <time>2020-01-09T18:30:57Z</time>
      </trkpt>
      <trkpt lat="56.923611315867" lon="14.784164702018">
        <ele>183.2</ele>
        <time>2020-01-09T18:30:59Z</time>
      </trkpt>
      <trkpt lat="56.923613243704" lon="14.7842047675">
        <ele>183.2</ele>
        <time>2020-01-09T18:31:03Z</time>
      </trkpt>
      <trkpt lat="56.923615758274" lon="14.784213903771">
        <ele>183.2</ele>
        <time>2020-01-09T18:31:04Z</time>
      </trkpt>
      <trkpt lat="56.923619194853" lon="14.784229326467">
        <ele>183.4</ele>
        <time>2020-01-09T18:31:07Z</time>
      </trkpt>
      <trkpt lat="56.923627744391" lon="14.784309038336">
        <ele>183.4</ele>
        <time>2020-01-09T18:31:15Z</time>
      </trkpt>
      <trkpt lat="56.923643250906" lon="14.784377769916">
        <ele>183</ele>
        <time>2020-01-09T18:31:20Z</time>
      </trkpt>
      <trkpt lat="56.923637467395" lon="14.784418086855">
        <ele>183</ele>
        <time>2020-01-09T18:31:24Z</time>
      </trkpt>
      <trkpt lat="56.923630594237" lon="14.78447131192">
        <ele>182.8</ele>
        <time>2020-01-09T18:31:28Z</time>
      </trkpt>
      <trkpt lat="56.923625481278" lon="14.784506599719">
        <ele>182.8</ele>
        <time>2020-01-09T18:31:31Z</time>
      </trkpt>
      <trkpt lat="56.923635707196" lon="14.784526297184">
        <ele>182.8</ele>
        <time>2020-01-09T18:31:36Z</time>
      </trkpt>
      <trkpt lat="56.923620368319" lon="14.784576672403">
        <ele>182.8</ele>
        <time>2020-01-09T18:31:39Z</time>
      </trkpt>
      <trkpt lat="56.923602431053" lon="14.784722517463">
        <ele>182.6</ele>
        <time>2020-01-09T18:31:47Z</time>
      </trkpt>
      <trkpt lat="56.92360268251" lon="14.784760906565">
        <ele>182.6</ele>
        <time>2020-01-09T18:31:49Z</time>
      </trkpt>
      <trkpt lat="56.923590277298" lon="14.784807845205">
        <ele>182.8</ele>
        <time>2020-01-09T18:31:52Z</time>
      </trkpt>
      <trkpt lat="56.923588098004" lon="14.784848748877">
        <ele>182.8</ele>
        <time>2020-01-09T18:31:54Z</time>
      </trkpt>
      <trkpt lat="56.923591534583" lon="14.78487615769">
        <ele>182.8</ele>
        <time>2020-01-09T18:31:56Z</time>
      </trkpt>
      <trkpt lat="56.923595893171" lon="14.784912786593">
        <ele>182.8</ele>
        <time>2020-01-09T18:31:59Z</time>
      </trkpt>
      <trkpt lat="56.923577452991" lon="14.784930053307">
        <ele>182.8</ele>
        <time>2020-01-09T18:32:01Z</time>
      </trkpt>
      <trkpt lat="56.923568651996" lon="14.784980009431">
        <ele>182.6</ele>
        <time>2020-01-09T18:32:04Z</time>
      </trkpt>
      <trkpt lat="56.923558845173" lon="14.785053434875">
        <ele>182.6</ele>
        <time>2020-01-09T18:32:08Z</time>
      </trkpt>
      <trkpt lat="56.923553480757" lon="14.785101127886">
        <ele>182.6</ele>
        <time>2020-01-09T18:32:11Z</time>
      </trkpt>
      <trkpt lat="56.923558509897" lon="14.785166758163">
        <ele>182.8</ele>
        <time>2020-01-09T18:32:15Z</time>
      </trkpt>
      <trkpt lat="56.923563539037" lon="14.785193496424">
        <ele>182.8</ele>
        <time>2020-01-09T18:32:17Z</time>
      </trkpt>
      <trkpt lat="56.923570747471" lon="14.785251582991">
        <ele>182.8</ele>
        <time>2020-01-09T18:32:20Z</time>
      </trkpt>
      <trkpt lat="56.923596479904" lon="14.785285445867">
        <ele>183</ele>
        <time>2020-01-09T18:32:26Z</time>
      </trkpt>
      <trkpt lat="56.923588181823" lon="14.785375299835">
        <ele>183</ele>
        <time>2020-01-09T18:32:30Z</time>
      </trkpt>
      <trkpt lat="56.923573597317" lon="14.785427351434">
        <ele>183.6</ele>
        <time>2020-01-09T18:32:33Z</time>
      </trkpt>
      <trkpt lat="56.923584577606" lon="14.785540590903">
        <ele>184.2</ele>
        <time>2020-01-09T18:32:36Z</time>
      </trkpt>
      <trkpt lat="56.923560437734" lon="14.78563388145">
        <ele>183.8</ele>
        <time>2020-01-09T18:32:39Z</time>
      </trkpt>
      <trkpt lat="56.923557001155" lon="14.785670594172">
        <ele>183.8</ele>
        <time>2020-01-09T18:32:41Z</time>
      </trkpt>
      <trkpt lat="56.923553732214" lon="14.785758017389">
        <ele>183.6</ele>
        <time>2020-01-09T18:32:46Z</time>
      </trkpt>
      <trkpt lat="56.923571082747" lon="14.785945269035">
        <ele>184</ele>
        <time>2020-01-09T18:32:51Z</time>
      </trkpt>
      <trkpt lat="56.923579464647" lon="14.786007965647">
        <ele>184.4</ele>
        <time>2020-01-09T18:32:53Z</time>
      </trkpt>
      <trkpt lat="56.923617518473" lon="14.786183482633">
        <ele>185.4</ele>
        <time>2020-01-09T18:33:00Z</time>
      </trkpt>
      <trkpt lat="56.923662948371" lon="14.786328238046">
        <ele>186.2</ele>
        <time>2020-01-09T18:33:07Z</time>
      </trkpt>
      <trkpt lat="56.923711311934" lon="14.786491014544">
        <ele>186</ele>
        <time>2020-01-09T18:33:15Z</time>
      </trkpt>
      <trkpt lat="56.923735200349" lon="14.786542647048">
        <ele>186.2</ele>
        <time>2020-01-09T18:33:19Z</time>
      </trkpt>
      <trkpt lat="56.923759675497" lon="14.786584053634">
        <ele>186.4</ele>
        <time>2020-01-09T18:33:21Z</time>
      </trkpt>
      <trkpt lat="56.923775852564" lon="14.786609702248">
        <ele>186.4</ele>
        <time>2020-01-09T18:33:22Z</time>
      </trkpt>
      <trkpt lat="56.923786413758" lon="14.786628310066">
        <ele>186.6</ele>
        <time>2020-01-09T18:33:23Z</time>
      </trkpt>
      <trkpt lat="56.923795550029" lon="14.786638535984">
        <ele>186.6</ele>
        <time>2020-01-09T18:33:25Z</time>
      </trkpt>
      <trkpt lat="56.923897893028" lon="14.786731826531">
        <ele>187</ele>
        <time>2020-01-09T18:33:38Z</time>
      </trkpt>
      <trkpt lat="56.923935695397" lon="14.786761079362">
        <ele>187.4</ele>
        <time>2020-01-09T18:33:41Z</time>
      </trkpt>
      <trkpt lat="56.923967965712" lon="14.786765018855">
        <ele>187.4</ele>
        <time>2020-01-09T18:33:43Z</time>
      </trkpt>
      <trkpt lat="56.924067375046" lon="14.786721349156">
        <ele>187.8</ele>
        <time>2020-01-09T18:33:48Z</time>
      </trkpt>
      <trkpt lat="56.924143650336" lon="14.786717828758">
        <ele>187.8</ele>
        <time>2020-01-09T18:33:51Z</time>
      </trkpt>
      <trkpt lat="56.924320676064" lon="14.786608025868">
        <ele>188.6</ele>
        <time>2020-01-09T18:33:58Z</time>
      </trkpt>
      <trkpt lat="56.924366944152" lon="14.78659612357">
        <ele>188.8</ele>
        <time>2020-01-09T18:34:00Z</time>
      </trkpt>
      <trkpt lat="56.924559308757" lon="14.786612300637">
        <ele>189</ele>
        <time>2020-01-09T18:34:09Z</time>
      </trkpt>
      <trkpt lat="56.924634075305" lon="14.78659193262">
        <ele>188.4</ele>
        <time>2020-01-09T18:34:16Z</time>
      </trkpt>
      <trkpt lat="56.924695430813" lon="14.786709949772">
        <ele>188.6</ele>
        <time>2020-01-09T18:34:23Z</time>
      </trkpt>
      <trkpt lat="56.924760641995" lon="14.78677968718">
        <ele>189</ele>
        <time>2020-01-09T18:34:27Z</time>
      </trkpt>
      <trkpt lat="56.924829708851" lon="14.786908014069">
        <ele>189.2</ele>
        <time>2020-01-09T18:34:36Z</time>
      </trkpt>
      <trkpt lat="56.924888214513" lon="14.786978002934">
        <ele>189.2</ele>
        <time>2020-01-09T18:34:39Z</time>
      </trkpt>
      <trkpt lat="56.924973793712" lon="14.78703952608">
        <ele>189.8</ele>
        <time>2020-01-09T18:34:43Z</time>
      </trkpt>
      <trkpt lat="56.925147550499" lon="14.787188472443">
        <ele>190.6</ele>
        <time>2020-01-09T18:34:56Z</time>
      </trkpt>
      <trkpt lat="56.92516842143" lon="14.787228873201">
        <ele>190.8</ele>
        <time>2020-01-09T18:34:58Z</time>
      </trkpt>
      <trkpt lat="56.925184682316" lon="14.787237925653">
        <ele>190.8</ele>
        <time>2020-01-09T18:35:00Z</time>
      </trkpt>
      <trkpt lat="56.925240421951" lon="14.787404390187">
        <ele>190.6</ele>
        <time>2020-01-09T18:35:15Z</time>
      </trkpt>
      <trkpt lat="56.925224747798" lon="14.787467422075">
        <ele>190.8</ele>
        <time>2020-01-09T18:35:18Z</time>
      </trkpt>
      <trkpt lat="56.925180826642" lon="14.787573117834">
        <ele>191.2</ele>
        <time>2020-01-09T18:35:23Z</time>
      </trkpt>
      <trkpt lat="56.925152328182" lon="14.7876748741">
        <ele>191.4</ele>
        <time>2020-01-09T18:35:27Z</time>
      </trkpt>
      <trkpt lat="56.925126595749" lon="14.787745365879">
        <ele>191.8</ele>
        <time>2020-01-09T18:35:29Z</time>
      </trkpt>
      <trkpt lat="56.925114609632" lon="14.787787359198">
        <ele>192</ele>
        <time>2020-01-09T18:35:30Z</time>
      </trkpt>
      <trkpt lat="56.925083680421" lon="14.787933120439">
        <ele>192.4</ele>
        <time>2020-01-09T18:35:34Z</time>
      </trkpt>
      <trkpt lat="56.925063060947" lon="14.788026578624">
        <ele>193</ele>
        <time>2020-01-09T18:35:37Z</time>
      </trkpt>
      <trkpt lat="56.925043447301" lon="14.788112744556">
        <ele>194</ele>
        <time>2020-01-09T18:35:39Z</time>
      </trkpt>
      <trkpt lat="56.925036657962" lon="14.788185247991">
        <ele>195.2</ele>
        <time>2020-01-09T18:35:41Z</time>
      </trkpt>
      <trkpt lat="56.925090972674" lon="14.788532510108">
        <ele>194.4</ele>
        <time>2020-01-09T18:35:50Z</time>
      </trkpt>
      <trkpt lat="56.92513908478" lon="14.788881700062">
        <ele>194.8</ele>
        <time>2020-01-09T18:35:57Z</time>
      </trkpt>
      <trkpt lat="56.925157441141" lon="14.789188393783">
        <ele>194.6</ele>
        <time>2020-01-09T18:36:05Z</time>
      </trkpt>
      <trkpt lat="56.925151992906" lon="14.789336418137">
        <ele>194.6</ele>
        <time>2020-01-09T18:36:10Z</time>
      </trkpt>
      <trkpt lat="56.925148053413" lon="14.789395510532">
        <ele>194.8</ele>
        <time>2020-01-09T18:36:12Z</time>
      </trkpt>
      <trkpt lat="56.925143108092" lon="14.789641686935">
        <ele>195</ele>
        <time>2020-01-09T18:36:18Z</time>
      </trkpt>
      <trkpt lat="56.925164062842" lon="14.789876044859">
        <ele>195</ele>
        <time>2020-01-09T18:36:26Z</time>
      </trkpt>
      <trkpt lat="56.925273446637" lon="14.790085592359">
        <ele>195.2</ele>
        <time>2020-01-09T18:36:52Z</time>
      </trkpt>
      <trkpt lat="56.925273781913" lon="14.790035971511">
        <ele>195.2</ele>
        <time>2020-01-09T18:36:55Z</time>
      </trkpt>
      <trkpt lat="56.925227346187" lon="14.7898122586">
        <ele>195.2</ele>
        <time>2020-01-09T18:37:06Z</time>
      </trkpt>
      <trkpt lat="56.925212342586" lon="14.789783005769">
        <ele>195.2</ele>
        <time>2020-01-09T18:37:09Z</time>
      </trkpt>
      <trkpt lat="56.925199350641" lon="14.789755596956">
        <ele>195.4</ele>
        <time>2020-01-09T18:37:11Z</time>
      </trkpt>
      <trkpt lat="56.925190801103" lon="14.789480502998">
        <ele>195.8</ele>
        <time>2020-01-09T18:37:18Z</time>
      </trkpt>
      <trkpt lat="56.925186191058" lon="14.789131983596">
        <ele>195.6</ele>
        <time>2020-01-09T18:37:27Z</time>
      </trkpt>
      <trkpt lat="56.925162637919" lon="14.78881984164">
        <ele>195.4</ele>
        <time>2020-01-09T18:37:38Z</time>
      </trkpt>
      <trkpt lat="56.92515668677" lon="14.788793438655">
        <ele>195</ele>
        <time>2020-01-09T18:37:43Z</time>
      </trkpt>
      <trkpt lat="56.92514327573" lon="14.788785224393">
        <ele>194.8</ele>
        <time>2020-01-09T18:37:46Z</time>
      </trkpt>
      <trkpt lat="56.925152579639" lon="14.788691766208">
        <ele>194.6</ele>
        <time>2020-01-09T18:37:53Z</time>
      </trkpt>
      <trkpt lat="56.925225334531" lon="14.78850719677">
        <ele>195</ele>
        <time>2020-01-09T18:38:12Z</time>
      </trkpt>
      <trkpt lat="56.925259029769" lon="14.788435782982">
        <ele>195.2</ele>
        <time>2020-01-09T18:38:15Z</time>
      </trkpt>
      <trkpt lat="56.925385093545" lon="14.788182314326">
        <ele>194.8</ele>
        <time>2020-01-09T18:38:24Z</time>
      </trkpt>
      <trkpt lat="56.925433708565" lon="14.788068991038">
        <ele>194.4</ele>
        <time>2020-01-09T18:38:28Z</time>
      </trkpt>
      <trkpt lat="56.925487268906" lon="14.787971425722">
        <ele>194</ele>
        <time>2020-01-09T18:38:32Z</time>
      </trkpt>
      <trkpt lat="56.925570417354" lon="14.787892049129">
        <ele>193.6</ele>
        <time>2020-01-09T18:38:37Z</time>
      </trkpt>
      <trkpt lat="56.925606710981" lon="14.787871345836">
        <ele>193</ele>
        <time>2020-01-09T18:38:40Z</time>
      </trkpt>
      <trkpt lat="56.925647195558" lon="14.787850307267">
        <ele>192.8</ele>
        <time>2020-01-09T18:38:43Z</time>
      </trkpt>
      <trkpt lat="56.92570402484" lon="14.787827508499">
        <ele>192.8</ele>
        <time>2020-01-09T18:38:46Z</time>
      </trkpt>
      <trkpt lat="56.925756914629" lon="14.787796076374">
        <ele>192.8</ele>
        <time>2020-01-09T18:38:49Z</time>
      </trkpt>
      <trkpt lat="56.925794716998" lon="14.787763973697">
        <ele>192.6</ele>
        <time>2020-01-09T18:38:52Z</time>
      </trkpt>
      <trkpt lat="56.925840063077" lon="14.787658613214">
        <ele>192</ele>
        <time>2020-01-09T18:38:56Z</time>
      </trkpt>
      <trkpt lat="56.925905358078" lon="14.787555683482">
        <ele>191.4</ele>
        <time>2020-01-09T18:39:00Z</time>
      </trkpt>
      <trkpt lat="56.925904603707" lon="14.787527268841">
        <ele>191</ele>
        <time>2020-01-09T18:39:02Z</time>
      </trkpt>
      <trkpt lat="56.926053801527" lon="14.787340687747">
        <ele>190.8</ele>
        <time>2020-01-09T18:39:16Z</time>
      </trkpt>
      <trkpt lat="56.926117671605" lon="14.787316464056">
        <ele>190.4</ele>
        <time>2020-01-09T18:39:19Z</time>
      </trkpt>
      <trkpt lat="56.926306096717" lon="14.787381088505">
        <ele>190.2</ele>
        <time>2020-01-09T18:39:29Z</time>
      </trkpt>
      <trkpt lat="56.926395699228" lon="14.787365917266">
        <ele>189.8</ele>
        <time>2020-01-09T18:39:33Z</time>
      </trkpt>
      <trkpt lat="56.926422018394" lon="14.787349740199">
        <ele>189.4</ele>
        <time>2020-01-09T18:39:35Z</time>
      </trkpt>
      <trkpt lat="56.926498964236" lon="14.787328114897">
        <ele>189.2</ele>
        <time>2020-01-09T18:39:38Z</time>
      </trkpt>
      <trkpt lat="56.926559733011" lon="14.787283858465">
        <ele>188.6</ele>
        <time>2020-01-09T18:39:42Z</time>
      </trkpt>
      <trkpt lat="56.926589404937" lon="14.78727841023">
        <ele>188.4</ele>
        <time>2020-01-09T18:39:44Z</time>
      </trkpt>
      <trkpt lat="56.926620082691" lon="14.787284445198">
        <ele>188</ele>
        <time>2020-01-09T18:39:46Z</time>
      </trkpt>
      <trkpt lat="56.926683114579" lon="14.787268016674">
        <ele>187.6</ele>
        <time>2020-01-09T18:39:49Z</time>
      </trkpt>
      <trkpt lat="56.92672410207" lon="14.78726332281">
        <ele>187.6</ele>
        <time>2020-01-09T18:39:51Z</time>
      </trkpt>
      <trkpt lat="56.926771375986" lon="14.787274638375">
        <ele>187.4</ele>
        <time>2020-01-09T18:39:54Z</time>
      </trkpt>
      <trkpt lat="56.926800293541" lon="14.787282182085">
        <ele>187.2</ele>
        <time>2020-01-09T18:39:56Z</time>
      </trkpt>
      <trkpt lat="56.926836922444" lon="14.787288049415">
        <ele>187.2</ele>
        <time>2020-01-09T18:39:58Z</time>
      </trkpt>
      <trkpt lat="56.926900373427" lon="14.787265585923">
        <ele>187.2</ele>
        <time>2020-01-09T18:40:01Z</time>
      </trkpt>
      <trkpt lat="56.926939433081" lon="14.78728343937">
        <ele>187</ele>
        <time>2020-01-09T18:40:05Z</time>
      </trkpt>
      <trkpt lat="56.926961980392" lon="14.78727170471">
        <ele>186.8</ele>
        <time>2020-01-09T18:40:07Z</time>
      </trkpt>
      <trkpt lat="56.926978744192" lon="14.787246475191">
        <ele>186.6</ele>
        <time>2020-01-09T18:40:09Z</time>
      </trkpt>
      <trkpt lat="56.926986958454" lon="14.787234991988">
        <ele>186.6</ele>
        <time>2020-01-09T18:40:10Z</time>
      </trkpt>
      <trkpt lat="56.927023168262" lon="14.787188807719">
        <ele>186.2</ele>
        <time>2020-01-09T18:40:13Z</time>
      </trkpt>
      <trkpt lat="56.927035154379" lon="14.787169780806">
        <ele>186</ele>
        <time>2020-01-09T18:40:15Z</time>
      </trkpt>
      <trkpt lat="56.927056444405" lon="14.787142288174">
        <ele>185.8</ele>
        <time>2020-01-09T18:40:17Z</time>
      </trkpt>
      <trkpt lat="56.927068262884" lon="14.78713424155">
        <ele>185.6</ele>
        <time>2020-01-09T18:40:18Z</time>
      </trkpt>
      <trkpt lat="56.927102377217" lon="14.787112951524">
        <ele>185.6</ele>
        <time>2020-01-09T18:40:20Z</time>
      </trkpt>
      <trkpt lat="56.927129283116" lon="14.787102641787">
        <ele>185.4</ele>
        <time>2020-01-09T18:40:21Z</time>
      </trkpt>
      <trkpt lat="56.927127774374" lon="14.787092415869">
        <ele>185</ele>
        <time>2020-01-09T18:40:23Z</time>
      </trkpt>
      <trkpt lat="56.927187872597" lon="14.78701605676">
        <ele>185</ele>
        <time>2020-01-09T18:40:29Z</time>
      </trkpt>
      <trkpt lat="56.927227099889" lon="14.786988228852">
        <ele>185</ele>
        <time>2020-01-09T18:40:31Z</time>
      </trkpt>
      <trkpt lat="56.927283845352" lon="14.786967609378">
        <ele>185.2</ele>
        <time>2020-01-09T18:40:35Z</time>
      </trkpt>
      <trkpt lat="56.927320306617" lon="14.786960652401">
        <ele>184.8</ele>
        <time>2020-01-09T18:40:38Z</time>
      </trkpt>
      <trkpt lat="56.927339082073" lon="14.786970040129">
        <ele>185</ele>
        <time>2020-01-09T18:40:42Z</time>
      </trkpt>
      <trkpt lat="56.927312259993" lon="14.787007423403">
        <ele>184.6</ele>
        <time>2020-01-09T18:40:48Z</time>
      </trkpt>
      <trkpt lat="56.927209162623" lon="14.787130804971">
        <ele>184.8</ele>
        <time>2020-01-09T18:40:56Z</time>
      </trkpt>
      <trkpt lat="56.927130791858" lon="14.787073472775">
        <ele>184.8</ele>
        <time>2020-01-09T18:41:01Z</time>
      </trkpt>
      <trkpt lat="56.926991736137" lon="14.786921928023">
        <ele>186.2</ele>
        <time>2020-01-09T18:41:09Z</time>
      </trkpt>
      <trkpt lat="56.926976564898" lon="14.786906756784">
        <ele>186.6</ele>
        <time>2020-01-09T18:41:10Z</time>
      </trkpt>
      <trkpt lat="56.926944378402" lon="14.786877084858">
        <ele>187</ele>
        <time>2020-01-09T18:41:12Z</time>
      </trkpt>
      <trkpt lat="56.926854440615" lon="14.786731407436">
        <ele>187.6</ele>
        <time>2020-01-09T18:41:18Z</time>
      </trkpt>
      <trkpt lat="56.92681797935" lon="14.786637278699">
        <ele>188</ele>
        <time>2020-01-09T18:41:21Z</time>
      </trkpt>
      <trkpt lat="56.926758048765" lon="14.786437789479">
        <ele>187.8</ele>
        <time>2020-01-09T18:41:27Z</time>
      </trkpt>
      <trkpt lat="56.926735417635" lon="14.786364364035">
        <ele>187.6</ele>
        <time>2020-01-09T18:41:29Z</time>
      </trkpt>
      <trkpt lat="56.926610778782" lon="14.786102262022">
        <ele>186.8</ele>
        <time>2020-01-09T18:41:36Z</time>
      </trkpt>
      <trkpt lat="56.926589321118" lon="14.786070913716">
        <ele>186.4</ele>
        <time>2020-01-09T18:41:37Z</time>
      </trkpt>
      <trkpt lat="56.926507346136" lon="14.785972007296">
        <ele>186</ele>
        <time>2020-01-09T18:41:41Z</time>
      </trkpt>
      <trkpt lat="56.926374660659" lon="14.785834544136">
        <ele>185.6</ele>
        <time>2020-01-09T18:41:48Z</time>
      </trkpt>
      <trkpt lat="56.926346246018" lon="14.785783414546">
        <ele>185.6</ele>
        <time>2020-01-09T18:41:50Z</time>
      </trkpt>
      <trkpt lat="56.926320681223" lon="14.785744857806">
        <ele>185.4</ele>
        <time>2020-01-09T18:41:52Z</time>
      </trkpt>
      <trkpt lat="56.92622789359" lon="14.785575711064">
        <ele>185.4</ele>
        <time>2020-01-09T18:41:56Z</time>
      </trkpt>
      <trkpt lat="56.926080707426" lon="14.785357614026">
        <ele>185.4</ele>
        <time>2020-01-09T18:42:05Z</time>
      </trkpt>
      <trkpt lat="56.926047263645" lon="14.785294079224">
        <ele>185</ele>
        <time>2020-01-09T18:42:08Z</time>
      </trkpt>
      <trkpt lat="56.925997223702" lon="14.785213612984">
        <ele>185</ele>
        <time>2020-01-09T18:42:13Z</time>
      </trkpt>
      <trkpt lat="56.925912231236" lon="14.785148988535">
        <ele>185.2</ele>
        <time>2020-01-09T18:42:18Z</time>
      </trkpt>
      <trkpt lat="56.925870992288" lon="14.785157621892">
        <ele>185.4</ele>
        <time>2020-01-09T18:42:21Z</time>
      </trkpt>
      <trkpt lat="56.925832938462" lon="14.785136918599">
        <ele>185.6</ele>
        <time>2020-01-09T18:42:25Z</time>
      </trkpt>
      <trkpt lat="56.925779964854" lon="14.785108084863">
        <ele>186</ele>
        <time>2020-01-09T18:42:31Z</time>
      </trkpt>
      <trkpt lat="56.92576269814" lon="14.785083609715">
        <ele>186.2</ele>
        <time>2020-01-09T18:42:33Z</time>
      </trkpt>
      <trkpt lat="56.925733612947" lon="14.785038179817">
        <ele>186.2</ele>
        <time>2020-01-09T18:42:37Z</time>
      </trkpt>
      <trkpt lat="56.925720704821" lon="14.785027450985">
        <ele>186</ele>
        <time>2020-01-09T18:42:40Z</time>
      </trkpt>
      <trkpt lat="56.925706958505" lon="14.785003311113">
        <ele>186</ele>
        <time>2020-01-09T18:42:43Z</time>
      </trkpt>
      <trkpt lat="56.925689524153" lon="14.785020913103">
        <ele>185.8</ele>
        <time>2020-01-09T18:42:45Z</time>
      </trkpt>
      <trkpt lat="56.92565624801" lon="14.785036168161">
        <ele>186</ele>
        <time>2020-01-09T18:42:52Z</time>
      </trkpt>
      <trkpt lat="56.925631437586" lon="14.785058799291">
        <ele>186.4</ele>
        <time>2020-01-09T18:42:57Z</time>
      </trkpt>
      <trkpt lat="56.925608974094" lon="14.785037509265">
        <ele>186.4</ele>
        <time>2020-01-09T18:42:59Z</time>
      </trkpt>
      <trkpt lat="56.925581481462" lon="14.785016722153">
        <ele>186.4</ele>
        <time>2020-01-09T18:43:01Z</time>
      </trkpt>
      <trkpt lat="56.925544936378" lon="14.78497925506">
        <ele>186.2</ele>
        <time>2020-01-09T18:43:05Z</time>
      </trkpt>
      <trkpt lat="56.925536135383" lon="14.785001215638">
        <ele>186.6</ele>
        <time>2020-01-09T18:43:09Z</time>
      </trkpt>
      <trkpt lat="56.925532698804" lon="14.785022505664">
        <ele>186.8</ele>
        <time>2020-01-09T18:43:11Z</time>
      </trkpt>
      <trkpt lat="56.925529513682" lon="14.785059218386">
        <ele>187.4</ele>
        <time>2020-01-09T18:43:14Z</time>
      </trkpt>
      <trkpt lat="56.925515767366" lon="14.785093416538">
        <ele>187.8</ele>
        <time>2020-01-09T18:43:17Z</time>
      </trkpt>
      <trkpt lat="56.925527669664" lon="14.785152257476">
        <ele>188</ele>
        <time>2020-01-09T18:43:22Z</time>
      </trkpt>
      <trkpt lat="56.925539655781" lon="14.785177654633">
        <ele>188.4</ele>
        <time>2020-01-09T18:43:24Z</time>
      </trkpt>
      <trkpt lat="56.925546612758" lon="14.785196262451">
        <ele>188.4</ele>
        <time>2020-01-09T18:43:25Z</time>
      </trkpt>
      <trkpt lat="56.925541583618" lon="14.785308579911">
        <ele>187.8</ele>
        <time>2020-01-09T18:43:37Z</time>
      </trkpt>
      <trkpt lat="56.925520377411" lon="14.785320817485">
        <ele>188</ele>
        <time>2020-01-09T18:43:40Z</time>
      </trkpt>
      <trkpt lat="56.925475366608" lon="14.785318219096">
        <ele>188.6</ele>
        <time>2020-01-09T18:43:43Z</time>
      </trkpt>
      <trkpt lat="56.925424739932" lon="14.785310423929">
        <ele>188.2</ele>
        <time>2020-01-09T18:43:47Z</time>
      </trkpt>
      <trkpt lat="56.925418621145" lon="14.785341017864">
        <ele>187.2</ele>
        <time>2020-01-09T18:43:49Z</time>
      </trkpt>
      <trkpt lat="56.925376544007" lon="14.785408995073">
        <ele>187</ele>
        <time>2020-01-09T18:43:52Z</time>
      </trkpt>
      <trkpt lat="56.925207732541" lon="14.785506811846">
        <ele>188.2</ele>
        <time>2020-01-09T18:43:59Z</time>
      </trkpt>
      <trkpt lat="56.925186610153" lon="14.785529023881">
        <ele>188.4</ele>
        <time>2020-01-09T18:44:00Z</time>
      </trkpt>
      <trkpt lat="56.925037496152" lon="14.785559869273">
        <ele>188.8</ele>
        <time>2020-01-09T18:44:06Z</time>
      </trkpt>
      <trkpt lat="56.924976559739" lon="14.785683669936">
        <ele>188.8</ele>
        <time>2020-01-09T18:44:10Z</time>
      </trkpt>
      <trkpt lat="56.924922664122" lon="14.78583839981">
        <ele>189.4</ele>
        <time>2020-01-09T18:44:14Z</time>
      </trkpt>
      <trkpt lat="56.924903218114" lon="14.785867485003">
        <ele>189.4</ele>
        <time>2020-01-09T18:44:15Z</time>
      </trkpt>
      <trkpt lat="56.924861979166" lon="14.785909059227">
        <ele>189.6</ele>
        <time>2020-01-09T18:44:17Z</time>
      </trkpt>
      <trkpt lat="56.92480129421" lon="14.786032524614">
        <ele>190.2</ele>
        <time>2020-01-09T18:44:22Z</time>
      </trkpt>
      <trkpt lat="56.924790146283" lon="14.786085582041">
        <ele>190.4</ele>
        <time>2020-01-09T18:44:24Z</time>
      </trkpt>
      <trkpt lat="56.924776651424" lon="14.786152553422">
        <ele>190.6</ele>
        <time>2020-01-09T18:44:26Z</time>
      </trkpt>
      <trkpt lat="56.924763491841" lon="14.786306528925">
        <ele>191</ele>
        <time>2020-01-09T18:44:30Z</time>
      </trkpt>
      <trkpt lat="56.92475016462" lon="14.786423372611">
        <ele>191.4</ele>
        <time>2020-01-09T18:44:33Z</time>
      </trkpt>
      <trkpt lat="56.924736166847" lon="14.786459666238">
        <ele>191.6</ele>
        <time>2020-01-09T18:44:34Z</time>
      </trkpt>
      <trkpt lat="56.924688390017" lon="14.786513394217">
        <ele>191.4</ele>
        <time>2020-01-09T18:44:38Z</time>
      </trkpt>
      <trkpt lat="56.924649833277" lon="14.786551028948">
        <ele>191.4</ele>
        <time>2020-01-09T18:44:42Z</time>
      </trkpt>
      <trkpt lat="56.924596440574" lon="14.786587238756">
        <ele>191.4</ele>
        <time>2020-01-09T18:44:44Z</time>
      </trkpt>
      <trkpt lat="56.924474316291" lon="14.786633339206">
        <ele>192.8</ele>
        <time>2020-01-09T18:44:48Z</time>
      </trkpt>
      <trkpt lat="56.92444422527" lon="14.78663300393">
        <ele>193</ele>
        <time>2020-01-09T18:44:49Z</time>
      </trkpt>
      <trkpt lat="56.924261248393" lon="14.786683127692">
        <ele>191.8</ele>
        <time>2020-01-09T18:44:57Z</time>
      </trkpt>
      <trkpt lat="56.924076762774" lon="14.786687402461">
        <ele>192</ele>
        <time>2020-01-09T18:45:05Z</time>
      </trkpt>
      <trkpt lat="56.924037786939" lon="14.786693688886">
        <ele>191.8</ele>
        <time>2020-01-09T18:45:07Z</time>
      </trkpt>
      <trkpt lat="56.923893366802" lon="14.786731742712">
        <ele>191.4</ele>
        <time>2020-01-09T18:45:15Z</time>
      </trkpt>
      <trkpt lat="56.923799238065" lon="14.786687737737">
        <ele>190.8</ele>
        <time>2020-01-09T18:45:23Z</time>
      </trkpt>
      <trkpt lat="56.923702175663" lon="14.78662210746">
        <ele>191</ele>
        <time>2020-01-09T18:45:29Z</time>
      </trkpt>
      <trkpt lat="56.923638473223" lon="14.7865516995">
        <ele>190.4</ele>
        <time>2020-01-09T18:45:34Z</time>
      </trkpt>
      <trkpt lat="56.923560270096" lon="14.786445584646">
        <ele>190.4</ele>
        <time>2020-01-09T18:45:40Z</time>
      </trkpt>
      <trkpt lat="56.923484581539" lon="14.786370818098">
        <ele>189.6</ele>
        <time>2020-01-09T18:45:44Z</time>
      </trkpt>
      <trkpt lat="56.923376455029" lon="14.786315832834">
        <ele>189.4</ele>
        <time>2020-01-09T18:45:49Z</time>
      </trkpt>
      <trkpt lat="56.923341418687" lon="14.78630610983">
        <ele>189.2</ele>
        <time>2020-01-09T18:45:51Z</time>
      </trkpt>
      <trkpt lat="56.923241757896" lon="14.786334021557">
        <ele>189.4</ele>
        <time>2020-01-09T18:45:57Z</time>
      </trkpt>
      <trkpt lat="56.923209236124" lon="14.786332680453">
        <ele>189.4</ele>
        <time>2020-01-09T18:45:59Z</time>
      </trkpt>
      <trkpt lat="56.923163638588" lon="14.786337709593">
        <ele>189.6</ele>
        <time>2020-01-09T18:46:02Z</time>
      </trkpt>
      <trkpt lat="56.923014776044" lon="14.786439717316">
        <ele>189.8</ele>
        <time>2020-01-09T18:46:12Z</time>
      </trkpt>
      <trkpt lat="56.922880414187" lon="14.786540635392">
        <ele>189.4</ele>
        <time>2020-01-09T18:46:32Z</time>
      </trkpt>
      <trkpt lat="56.922703723735" lon="14.786532085854">
        <ele>189.4</ele>
        <time>2020-01-09T18:46:42Z</time>
      </trkpt>
      <trkpt lat="56.92261278012" lon="14.786507359249">
        <ele>189.2</ele>
        <time>2020-01-09T18:46:48Z</time>
      </trkpt>
      <trkpt lat="56.922595597225" lon="14.786499564082">
        <ele>189.2</ele>
        <time>2020-01-09T18:46:50Z</time>
      </trkpt>
      <trkpt lat="56.92249208076" lon="14.786447512483">
        <ele>189</ele>
        <time>2020-01-09T18:47:03Z</time>
      </trkpt>
      <trkpt lat="56.922444052473" lon="14.786416247996">
        <ele>189.2</ele>
        <time>2020-01-09T18:47:10Z</time>
      </trkpt>
      <trkpt lat="56.922389234847" lon="14.786393784504">
        <ele>189.2</ele>
        <time>2020-01-09T18:47:15Z</time>
      </trkpt>
      <trkpt lat="56.922218663182" lon="14.78637651779">
        <ele>189.4</ele>
        <time>2020-01-09T18:47:33Z</time>
      </trkpt>
      <trkpt lat="56.922129563585" lon="14.786343493104">
        <ele>189.6</ele>
        <time>2020-01-09T18:47:42Z</time>
      </trkpt>
      <trkpt lat="56.922111123405" lon="14.786329998245">
        <ele>189.6</ele>
        <time>2020-01-09T18:47:44Z</time>
      </trkpt>
      <trkpt lat="56.922082708764" lon="14.786329243874">
        <ele>189.4</ele>
        <time>2020-01-09T18:47:46Z</time>
      </trkpt>
      <trkpt lat="56.922034764296" lon="14.786338883059">
        <ele>189.4</ele>
        <time>2020-01-09T18:47:54Z</time>
      </trkpt>
      <trkpt lat="56.922018000496" lon="14.786332596634">
        <ele>189.4</ele>
        <time>2020-01-09T18:47:56Z</time>
      </trkpt>
      <trkpt lat="56.921997129565" lon="14.786341229991">
        <ele>189.6</ele>
        <time>2020-01-09T18:47:59Z</time>
      </trkpt>
      <trkpt lat="56.921961925585" lon="14.786337541955">
        <ele>189.8</ele>
        <time>2020-01-09T18:48:03Z</time>
      </trkpt>
      <trkpt lat="56.921951867305" lon="14.786323292725">
        <ele>189.8</ele>
        <time>2020-01-09T18:48:05Z</time>
      </trkpt>
      <trkpt lat="56.921945329423" lon="14.786307031839">
        <ele>189.8</ele>
        <time>2020-01-09T18:48:08Z</time>
      </trkpt>
      <trkpt lat="56.92188020206" lon="14.786170155412">
        <ele>189.8</ele>
        <time>2020-01-09T18:48:21Z</time>
      </trkpt>
      <trkpt lat="56.921845752451" lon="14.786056664486">
        <ele>190</ele>
        <time>2020-01-09T18:48:28Z</time>
      </trkpt>
      <trkpt lat="56.921807698625" lon="14.785977455531">
        <ele>190.2</ele>
        <time>2020-01-09T18:48:37Z</time>
      </trkpt>
      <trkpt lat="56.921780708907" lon="14.785927834683">
        <ele>190.2</ele>
        <time>2020-01-09T18:48:42Z</time>
      </trkpt>
      <trkpt lat="56.921776937052" lon="14.7858224742">
        <ele>190.2</ele>
        <time>2020-01-09T18:48:47Z</time>
      </trkpt>
      <trkpt lat="56.921792275929" lon="14.785629355224">
        <ele>190.2</ele>
        <time>2020-01-09T18:48:58Z</time>
      </trkpt>
      <trkpt lat="56.921816834896" lon="14.785579315281">
        <ele>190.2</ele>
        <time>2020-01-09T18:49:01Z</time>
      </trkpt>
      <trkpt lat="56.921835861809" lon="14.785549810993">
        <ele>190.2</ele>
        <time>2020-01-09T18:49:03Z</time>
      </trkpt>
      <trkpt lat="56.921889505969" lon="14.785505554561">
        <ele>190.4</ele>
        <time>2020-01-09T18:49:08Z</time>
      </trkpt>
      <trkpt lat="56.921978437928" lon="14.785451239849">
        <ele>190.8</ele>
        <time>2020-01-09T18:49:14Z</time>
      </trkpt>
      <trkpt lat="56.921996794289" lon="14.785425255959">
        <ele>190.8</ele>
        <time>2020-01-09T18:49:15Z</time>
      </trkpt>
      <trkpt lat="56.922116152545" lon="14.785232472259">
        <ele>190.2</ele>
        <time>2020-01-09T18:49:24Z</time>
      </trkpt>
      <trkpt lat="56.922065861145" lon="14.785276477234">
        <ele>189.8</ele>
        <time>2020-01-09T18:49:33Z</time>
      </trkpt>
      <trkpt lat="56.922005595284" lon="14.785467165459">
        <ele>191.4</ele>
        <time>2020-01-09T18:49:39Z</time>
      </trkpt>
      <trkpt lat="56.921814571783" lon="14.785511170434">
        <ele>191.6</ele>
        <time>2020-01-09T18:49:48Z</time>
      </trkpt>
      <trkpt lat="56.921621536626" lon="14.785582081308">
        <ele>190.2</ele>
        <time>2020-01-09T18:50:00Z</time>
      </trkpt>
      <trkpt lat="56.921560348756" lon="14.785661876996">
        <ele>190.6</ele>
        <time>2020-01-09T18:50:05Z</time>
      </trkpt>
      <trkpt lat="56.921505363492" lon="14.785849715375">
        <ele>191.2</ele>
        <time>2020-01-09T18:50:11Z</time>
      </trkpt>
      <trkpt lat="56.921454150083" lon="14.786085917317">
        <ele>191.6</ele>
        <time>2020-01-09T18:50:18Z</time>
      </trkpt>
      <trkpt lat="56.921444175622" lon="14.786144171522">
        <ele>191.4</ele>
        <time>2020-01-09T18:50:20Z</time>
      </trkpt>
      <trkpt lat="56.921420706302" lon="14.786229247807">
        <ele>191.8</ele>
        <time>2020-01-09T18:50:23Z</time>
      </trkpt>
      <trkpt lat="56.921413246411" lon="14.786271827859">
        <ele>191.8</ele>
        <time>2020-01-09T18:50:24Z</time>
      </trkpt>
      <trkpt lat="56.921424561976" lon="14.786389761192">
        <ele>191.4</ele>
        <time>2020-01-09T18:50:30Z</time>
      </trkpt>
      <trkpt lat="56.921427998555" lon="14.786429491398">
        <ele>191.4</ele>
        <time>2020-01-09T18:50:32Z</time>
      </trkpt>
      <trkpt lat="56.921440068491" lon="14.786662256761">
        <ele>191.4</ele>
        <time>2020-01-09T18:50:38Z</time>
      </trkpt>
      <trkpt lat="56.921488348235" lon="14.786991665431">
        <ele>191.4</ele>
        <time>2020-01-09T18:50:49Z</time>
      </trkpt>
      <trkpt lat="56.921493545013" lon="14.78708143558">
        <ele>191.8</ele>
        <time>2020-01-09T18:50:51Z</time>
      </trkpt>
      <trkpt lat="56.921498322696" lon="14.787148323142">
        <ele>192.4</ele>
        <time>2020-01-09T18:50:53Z</time>
      </trkpt>
      <trkpt lat="56.921500669628" lon="14.787296179858">
        <ele>192.2</ele>
        <time>2020-01-09T18:50:58Z</time>
      </trkpt>
      <trkpt lat="56.921532520848" lon="14.787503212788">
        <ele>192.2</ele>
        <time>2020-01-09T18:51:07Z</time>
      </trkpt>
      <trkpt lat="56.921532101753" lon="14.7876162008">
        <ele>192.2</ele>
        <time>2020-01-09T18:51:11Z</time>
      </trkpt>
      <trkpt lat="56.92152983864" lon="14.787702785827">
        <ele>192.2</ele>
        <time>2020-01-09T18:51:14Z</time>
      </trkpt>
      <trkpt lat="56.921558756195" lon="14.787850810181">
        <ele>192.8</ele>
        <time>2020-01-09T18:51:17Z</time>
      </trkpt>
      <trkpt lat="56.92162287773" lon="14.788186756733">
        <ele>192.6</ele>
        <time>2020-01-09T18:51:25Z</time>
      </trkpt>
      <trkpt lat="56.921639557711" lon="14.788303348962">
        <ele>192.8</ele>
        <time>2020-01-09T18:51:30Z</time>
      </trkpt>
      <trkpt lat="56.921623213006" lon="14.788319358391">
        <ele>192.6</ele>
        <time>2020-01-09T18:51:44Z</time>
      </trkpt>
      <trkpt lat="56.921562863326" lon="14.788008389901">
        <ele>192.8</ele>
        <time>2020-01-09T18:51:50Z</time>
      </trkpt>
      <trkpt lat="56.921510979365" lon="14.787877883718">
        <ele>192</ele>
        <time>2020-01-09T18:51:54Z</time>
      </trkpt>
      <trkpt lat="56.921475021014" lon="14.78785340857">
        <ele>191.8</ele>
        <time>2020-01-09T18:51:56Z</time>
      </trkpt>
      <trkpt lat="56.92137896444" lon="14.787805380283">
        <ele>191.6</ele>
        <time>2020-01-09T18:52:03Z</time>
      </trkpt>
      <trkpt lat="56.921357506776" lon="14.787795489641">
        <ele>191.8</ele>
        <time>2020-01-09T18:52:05Z</time>
      </trkpt>
      <trkpt lat="56.921346358849" lon="14.787775875995">
        <ele>192</ele>
        <time>2020-01-09T18:52:07Z</time>
      </trkpt>
      <trkpt lat="56.921292295594" lon="14.78774276749">
        <ele>192</ele>
        <time>2020-01-09T18:52:11Z</time>
      </trkpt>
      <trkpt lat="56.921282656409" lon="14.78773019464">
        <ele>192</ele>
        <time>2020-01-09T18:52:12Z</time>
      </trkpt>
      <trkpt lat="56.921238483796" lon="14.787670347874">
        <ele>192.4</ele>
        <time>2020-01-09T18:52:16Z</time>
      </trkpt>
      <trkpt lat="56.921217529046" lon="14.787628857469">
        <ele>192.2</ele>
        <time>2020-01-09T18:52:18Z</time>
      </trkpt>
      <trkpt lat="56.921176038641" lon="14.787517042923">
        <ele>191.6</ele>
        <time>2020-01-09T18:52:21Z</time>
      </trkpt>
      <trkpt lat="56.921021727862" lon="14.787333646951">
        <ele>192.2</ele>
        <time>2020-01-09T18:52:27Z</time>
      </trkpt>
      <trkpt lat="56.920971101186" lon="14.787281176257">
        <ele>193</ele>
        <time>2020-01-09T18:52:30Z</time>
      </trkpt>
      <trkpt lat="56.920955427033" lon="14.787276398574">
        <ele>193.2</ele>
        <time>2020-01-09T18:52:31Z</time>
      </trkpt>
      <trkpt lat="56.920773372165" lon="14.787204565691">
        <ele>194</ele>
        <time>2020-01-09T18:52:40Z</time>
      </trkpt>
      <trkpt lat="56.92059693317" lon="14.78711244861">
        <ele>193.4</ele>
        <time>2020-01-09T18:52:47Z</time>
      </trkpt>
      <trkpt lat="56.920421667641" lon="14.786976913287">
        <ele>194</ele>
        <time>2020-01-09T18:52:54Z</time>
      </trkpt>
      <trkpt lat="56.920386798937" lon="14.786976829468">
        <ele>194.6</ele>
        <time>2020-01-09T18:52:55Z</time>
      </trkpt>
      <trkpt lat="56.920215808177" lon="14.787125775831">
        <ele>195</ele>
        <time>2020-01-09T18:53:01Z</time>
      </trkpt>
      <trkpt lat="56.920110950608" lon="14.787415370476">
        <ele>195.6</ele>
        <time>2020-01-09T18:53:07Z</time>
      </trkpt>
      <trkpt lat="56.920088654754" lon="14.787453005207">
        <ele>195.8</ele>
        <time>2020-01-09T18:53:08Z</time>
      </trkpt>
      <trkpt lat="56.920010367808" lon="14.787515450362">
        <ele>195.8</ele>
        <time>2020-01-09T18:53:11Z</time>
      </trkpt>
      <trkpt lat="56.919823199981" lon="14.787559287699">
        <ele>196</ele>
        <time>2020-01-09T18:53:19Z</time>
      </trkpt>
      <trkpt lat="56.919655561981" lon="14.787655428092">
        <ele>194.8</ele>
        <time>2020-01-09T18:53:28Z</time>
      </trkpt>
      <trkpt lat="56.919650365203" lon="14.787673113901">
        <ele>194.6</ele>
        <time>2020-01-09T18:53:30Z</time>
      </trkpt>
      <trkpt lat="56.919600241441" lon="14.787744695327">
        <ele>194.4</ele>
        <time>2020-01-09T18:53:34Z</time>
      </trkpt>
      <trkpt lat="56.919560175959" lon="14.787766572086">
        <ele>194.4</ele>
        <time>2020-01-09T18:53:36Z</time>
      </trkpt>
      <trkpt lat="56.919473507113" lon="14.787761040032">
        <ele>194.4</ele>
        <time>2020-01-09T18:53:42Z</time>
      </trkpt>
      <trkpt lat="56.919435034192" lon="14.787746623164">
        <ele>195</ele>
        <time>2020-01-09T18:53:45Z</time>
      </trkpt>
      <trkpt lat="56.919414582356" lon="14.78774276749">
        <ele>194.6</ele>
        <time>2020-01-09T18:53:49Z</time>
      </trkpt>
      <trkpt lat="56.919403769705" lon="14.787763219326">
        <ele>194.2</ele>
        <time>2020-01-09T18:53:53Z</time>
      </trkpt>
      <trkpt lat="56.919393711425" lon="14.787790963415">
        <ele>194.6</ele>
        <time>2020-01-09T18:53:58Z</time>
      </trkpt>
      <trkpt lat="56.919373343408" lon="14.787841506272">
        <ele>194.6</ele>
        <time>2020-01-09T18:54:05Z</time>
      </trkpt>
      <trkpt lat="56.919311401167" lon="14.787895569527">
        <ele>194</ele>
        <time>2020-01-09T18:54:14Z</time>
      </trkpt>
      <trkpt lat="56.919246776718" lon="14.787959104329">
        <ele>193.6</ele>
        <time>2020-01-09T18:54:18Z</time>
      </trkpt>
      <trkpt lat="56.919231186384" lon="14.787985172038">
        <ele>193.8</ele>
        <time>2020-01-09T18:54:19Z</time>
      </trkpt>
      <trkpt lat="56.919139153122" lon="14.788211986252">
        <ele>194</ele>
        <time>2020-01-09T18:54:28Z</time>
      </trkpt>
      <trkpt lat="56.919143679348" lon="14.788314664527">
        <ele>193.4</ele>
        <time>2020-01-09T18:54:31Z</time>
      </trkpt>
      <trkpt lat="56.919124065702" lon="14.788419354458">
        <ele>192.4</ele>
        <time>2020-01-09T18:54:34Z</time>
      </trkpt>
      <trkpt lat="56.919106379893" lon="14.788447601461">
        <ele>192.4</ele>
        <time>2020-01-09T18:54:35Z</time>
      </trkpt>
      <trkpt lat="56.918925079396" lon="14.788624124275">
        <ele>192.4</ele>
        <time>2020-01-09T18:54:42Z</time>
      </trkpt>
      <trkpt lat="56.918753250446" lon="14.788765107833">
        <ele>191.6</ele>
        <time>2020-01-09T18:54:48Z</time>
      </trkpt>
      <trkpt lat="56.918664569944" lon="14.78882989992">
        <ele>191.2</ele>
        <time>2020-01-09T18:54:52Z</time>
      </trkpt>
      <trkpt lat="56.918472875891" lon="14.788809112808">
        <ele>191.4</ele>
        <time>2020-01-09T18:54:58Z</time>
      </trkpt>
      <trkpt lat="56.918344046088" lon="14.788812884663">
        <ele>192.4</ele>
        <time>2020-01-09T18:55:02Z</time>
      </trkpt>
      <trkpt lat="56.918161069211" lon="14.788868959574">
        <ele>192.4</ele>
        <time>2020-01-09T18:55:07Z</time>
      </trkpt>
      <trkpt lat="56.918042297688" lon="14.788877928207">
        <ele>191.2</ele>
        <time>2020-01-09T18:55:11Z</time>
      </trkpt>
      <trkpt lat="56.917843562839" lon="14.788819757821">
        <ele>191.4</ele>
        <time>2020-01-09T18:55:18Z</time>
      </trkpt>
      <trkpt lat="56.917631919864" lon="14.78878044671">
        <ele>191.4</ele>
        <time>2020-01-09T18:55:24Z</time>
      </trkpt>
      <trkpt lat="56.917446847512" lon="14.788679444815">
        <ele>191.2</ele>
        <time>2020-01-09T18:55:30Z</time>
      </trkpt>
      <trkpt lat="56.91726009878" lon="14.788663016291">
        <ele>192.4</ele>
        <time>2020-01-09T18:55:35Z</time>
      </trkpt>
      <trkpt lat="56.917069242917" lon="14.788646084853">
        <ele>191</ele>
        <time>2020-01-09T18:55:40Z</time>
      </trkpt>
      <trkpt lat="56.916901521098" lon="14.788844484426">
        <ele>190</ele>
        <time>2020-01-09T18:55:47Z</time>
      </trkpt>
      <trkpt lat="56.916874196104" lon="14.788989239839">
        <ele>190.2</ele>
        <time>2020-01-09T18:55:50Z</time>
      </trkpt>
      <trkpt lat="56.916889534981" lon="14.789328539151">
        <ele>192.2</ele>
        <time>2020-01-09T18:55:58Z</time>
      </trkpt>
      <trkpt lat="56.916895067035" lon="14.789474300392">
        <ele>193.4</ele>
        <time>2020-01-09T18:56:02Z</time>
      </trkpt>
      <trkpt lat="56.916888612972" lon="14.789811755686">
        <ele>192.4</ele>
        <time>2020-01-09T18:56:11Z</time>
      </trkpt>
      <trkpt lat="56.916772020743" lon="14.789921474757">
        <ele>191.4</ele>
        <time>2020-01-09T18:56:15Z</time>
      </trkpt>
      <trkpt lat="56.916694488168" lon="14.79008969949">
        <ele>190</ele>
        <time>2020-01-09T18:56:18Z</time>
      </trkpt>
      <trkpt lat="56.916651824297" lon="14.790449534457">
        <ele>189.8</ele>
        <time>2020-01-09T18:56:23Z</time>
      </trkpt>
      <trkpt lat="56.916605556209" lon="14.790825378853">
        <ele>190</ele>
        <time>2020-01-09T18:56:29Z</time>
      </trkpt>
      <trkpt lat="56.916574207903" lon="14.791187644571">
        <ele>190</ele>
        <time>2020-01-09T18:56:34Z</time>
      </trkpt>
      <trkpt lat="56.91656943022" lon="14.791538678543">
        <ele>189.6</ele>
        <time>2020-01-09T18:56:39Z</time>
      </trkpt>
      <trkpt lat="56.916557276465" lon="14.791882084986">
        <ele>189.4</ele>
        <time>2020-01-09T18:56:44Z</time>
      </trkpt>
      <trkpt lat="56.916546128538" lon="14.792238483374">
        <ele>190.4</ele>
        <time>2020-01-09T18:56:49Z</time>
      </trkpt>
      <trkpt lat="56.916542775778" lon="14.792627487353">
        <ele>190.8</ele>
        <time>2020-01-09T18:56:54Z</time>
      </trkpt>
      <trkpt lat="56.916504470495" lon="14.792970390882">
        <ele>190</ele>
        <time>2020-01-09T18:56:59Z</time>
      </trkpt>
      <trkpt lat="56.916480330623" lon="14.793349252762">
        <ele>190.6</ele>
        <time>2020-01-09T18:57:05Z</time>
      </trkpt>
      <trkpt lat="56.916501117735" lon="14.793447404811">
        <ele>191</ele>
        <time>2020-01-09T18:57:16Z</time>
      </trkpt>
      <trkpt lat="56.916506146875" lon="14.793438603816">
        <ele>191</ele>
        <time>2020-01-09T18:57:26Z</time>
      </trkpt>
    </trkseg>
  </trk>
</gpx>